createdAt,value
2023-03-06T00:01:05.695Z,-0.18
2023-03-06T00:03:33.724Z,-0.14
2023-03-06T00:06:00.590Z,-0.23
2023-03-06T00:08:28.641Z,-0.23
2023-03-06T00:10:56.739Z,-0.24
2023-03-06T00:13:24.306Z,-0.23
2023-03-06T00:15:51.029Z,-0.08
2023-03-06T00:18:18.050Z,0.01
2023-03-06T00:20:45.030Z,0.15
2023-03-06T00:23:11.837Z,-0.01
2023-03-06T00:25:42.877Z,0.05
2023-03-06T00:28:09.630Z,-0.02
2023-03-06T00:30:36.462Z,-0.16
2023-03-06T00:33:03.319Z,-0.21
2023-03-06T00:35:29.959Z,-0.12
2023-03-06T00:37:59.665Z,-0.26
2023-03-06T00:40:26.889Z,-0.25
2023-03-06T00:42:53.528Z,-0.17
2023-03-06T00:45:20.314Z,-0.24
2023-03-06T00:47:46.879Z,-0.40
2023-03-06T00:50:13.502Z,-0.21
2023-03-06T00:52:41.988Z,-0.31
2023-03-06T00:55:09.445Z,-0.34
2023-03-06T00:57:35.981Z,-0.47
2023-03-06T01:00:03.043Z,-0.36
2023-03-06T01:02:29.843Z,-0.50
2023-03-06T01:04:57.319Z,-0.23
2023-03-06T01:07:24.173Z,-0.05
2023-03-06T01:09:50.892Z,-0.23
2023-03-06T01:12:17.559Z,-0.33
2023-03-06T01:14:44.287Z,-0.34
2023-03-06T01:17:11.666Z,-0.41
2023-03-06T01:19:38.319Z,-0.59
2023-03-06T01:22:05.050Z,-0.41
2023-03-06T01:24:31.662Z,-0.22
2023-03-06T01:26:58.549Z,-0.33
2023-03-06T01:29:26.447Z,-0.27
2023-03-06T01:31:53.182Z,-0.23
2023-03-06T01:34:19.786Z,-0.43
2023-03-06T01:36:46.402Z,-0.34
2023-03-06T01:39:12.969Z,-0.40
2023-03-06T01:41:39.714Z,-0.39
2023-03-06T01:44:06.248Z,-0.39
2023-03-06T01:46:42.210Z,-0.40
2023-03-06T01:49:12.760Z,-0.49
2023-03-06T01:51:45.664Z,-0.49
2023-03-06T01:54:20.539Z,-0.56
2023-03-06T01:56:50.354Z,-0.55
2023-03-06T01:59:17.261Z,-0.51
2023-03-06T02:01:44.787Z,-0.40
2023-03-06T02:04:11.957Z,-0.41
2023-03-06T02:06:43.254Z,-0.47
2023-03-06T02:09:11.488Z,-0.46
2023-03-06T02:11:38.379Z,-0.36
2023-03-06T02:14:05.185Z,-0.44
2023-03-06T02:16:34.257Z,-0.48
2023-03-06T02:19:02.442Z,-0.39
2023-03-06T02:21:34.356Z,-0.46
2023-03-06T02:24:11.923Z,-0.30
2023-03-06T02:26:41.190Z,-0.27
2023-03-06T02:29:10.621Z,-0.45
2023-03-06T02:31:37.241Z,-0.49
2023-03-06T02:34:05.827Z,-0.44
2023-03-06T02:36:37.604Z,-0.33
2023-03-06T02:39:05.405Z,-0.52
2023-03-06T02:41:32.362Z,-0.54
2023-03-06T02:43:58.991Z,-0.45
2023-03-06T02:46:25.673Z,-0.43
2023-03-06T02:48:52.288Z,-0.52
2023-03-06T02:51:18.992Z,-0.55
2023-03-06T02:53:45.574Z,-0.45
2023-03-06T02:56:12.276Z,-0.54
2023-03-06T02:58:38.967Z,-0.54
2023-03-06T03:01:06.321Z,-0.55
2023-03-06T03:03:33.382Z,-0.48
2023-03-06T03:06:00.984Z,-0.35
2023-03-06T03:08:28.193Z,-0.19
2023-03-06T03:10:56.472Z,-0.35
2023-03-06T03:13:23.481Z,-0.38
2023-03-06T03:16:07.804Z,-0.29
2023-03-06T03:18:35.299Z,-0.37
2023-03-06T03:21:02.201Z,-0.38
2023-03-06T03:23:28.825Z,-0.53
2023-03-06T03:25:55.422Z,-0.46
2023-03-06T03:28:22.016Z,-0.33
2023-03-06T03:30:48.898Z,-0.37
2023-03-06T03:33:15.612Z,-0.31
2023-03-06T03:35:42.234Z,-0.31
2023-03-06T03:38:08.867Z,-0.27
2023-03-06T03:40:35.405Z,-0.26
2023-03-06T03:43:02.182Z,-0.37
2023-03-06T03:45:28.880Z,-0.26
2023-03-06T03:47:55.433Z,-0.24
2023-03-06T03:50:22.124Z,-0.31
2023-03-06T03:52:48.790Z,-0.20
2023-03-06T03:55:15.502Z,-0.18
2023-03-06T03:57:43.187Z,-0.15
2023-03-06T04:00:14.847Z,0.01
2023-03-06T04:02:41.945Z,-0.23
2023-03-06T04:05:08.983Z,-0.25
2023-03-06T04:07:35.831Z,-0.27
2023-03-06T04:10:02.481Z,-0.31
2023-03-06T04:12:29.090Z,-0.32
2023-03-06T04:14:55.645Z,-0.29
2023-03-06T04:17:22.211Z,-0.09
2023-03-06T04:19:48.787Z,-0.16
2023-03-06T04:22:15.541Z,-0.17
2023-03-06T04:24:42.109Z,-0.01
2023-03-06T04:27:08.800Z,-0.18
2023-03-06T04:29:35.359Z,-0.09
2023-03-06T04:32:02.894Z,0.05
2023-03-06T04:34:29.505Z,-0.03
2023-03-06T04:36:56.054Z,-0.03
2023-03-06T04:39:22.757Z,-0.08
2023-03-06T04:41:49.315Z,-0.16
2023-03-06T04:44:16.010Z,-0.06
2023-03-06T04:46:43.442Z,-0.02
2023-03-06T04:49:10.027Z,0.03
2023-03-06T04:51:36.943Z,-0.06
2023-03-06T04:54:04.529Z,-0.04
2023-03-06T04:56:31.603Z,0.05
2023-03-06T04:58:58.281Z,0.18
2023-03-06T05:01:25.039Z,0.13
2023-03-06T05:03:51.750Z,-0.03
2023-03-06T05:06:18.307Z,0.03
2023-03-06T05:08:46.194Z,-0.12
2023-03-06T05:11:12.853Z,-0.06
2023-03-06T05:13:39.429Z,-0.12
2023-03-06T05:16:06.591Z,-0.08
2023-03-06T05:18:36.049Z,-0.12
2023-03-06T05:21:04.425Z,-0.06
2023-03-06T05:23:32.996Z,0.01
2023-03-06T05:25:59.815Z,-0.02
2023-03-06T05:28:26.889Z,-0.01
2023-03-06T05:30:53.564Z,-0.03
2023-03-06T05:33:20.180Z,0.17
2023-03-06T05:35:48.443Z,0.37
2023-03-06T05:38:16.553Z,0.18
2023-03-06T05:40:44.556Z,0.12
2023-03-06T05:43:12.097Z,0.15
2023-03-06T05:45:39.454Z,0.34
2023-03-06T05:48:07.027Z,0.50
2023-03-06T05:50:34.464Z,0.60
2023-03-06T05:53:01.641Z,0.56
2023-03-06T05:55:28.292Z,0.61
2023-03-06T05:57:54.980Z,0.56
2023-03-06T06:00:22.411Z,0.70
2023-03-06T06:02:49.394Z,0.77
2023-03-06T06:05:16.097Z,0.77
2023-03-06T06:07:42.776Z,0.84
2023-03-06T06:10:11.425Z,0.86
2023-03-06T06:12:38.323Z,1.01
2023-03-06T06:15:06.670Z,1.02
2023-03-06T06:17:34.710Z,1.10
2023-03-06T06:20:01.406Z,1.11
2023-03-06T06:22:28.037Z,1.14
2023-03-06T06:24:54.649Z,1.14
2023-03-06T06:27:21.344Z,1.10
2023-03-06T06:29:51.392Z,1.39
2023-03-06T06:32:18.069Z,1.34
2023-03-06T06:34:44.705Z,1.44
2023-03-06T06:37:11.396Z,1.57
2023-03-06T06:39:38.017Z,1.45
2023-03-06T06:42:28.180Z,1.54
2023-03-06T06:44:51.536Z,1.49
2023-03-06T06:47:22.815Z,1.71
2023-03-06T06:49:51.813Z,1.90
2023-03-06T06:52:18.958Z,1.99
2023-03-06T06:54:45.744Z,2.07
2023-03-06T06:57:12.647Z,2.26
2023-03-06T06:59:39.421Z,2.34
2023-03-06T07:02:06.350Z,2.57
2023-03-06T07:04:33.106Z,2.68
2023-03-06T07:07:00.184Z,2.72
2023-03-06T07:09:26.981Z,2.60
2023-03-06T07:11:53.605Z,2.68
2023-03-06T07:14:20.256Z,2.77
2023-03-06T07:16:46.934Z,3.02
2023-03-06T07:19:13.706Z,3.07
2023-03-06T07:21:40.366Z,3.21
2023-03-06T07:24:07.165Z,3.10
2023-03-06T07:26:34.856Z,3.28
2023-03-06T07:29:02.578Z,3.48
2023-03-06T07:31:29.293Z,3.67
2023-03-06T07:33:55.961Z,4.03
2023-03-06T07:36:23.781Z,4.30
2023-03-06T07:38:50.737Z,4.46
2023-03-06T07:41:21.886Z,4.08
2023-03-06T07:43:49.559Z,3.70
2023-03-06T07:46:16.288Z,4.06
2023-03-06T07:48:43.323Z,4.42
2023-03-06T07:51:19.163Z,4.25
2023-03-06T07:53:46.870Z,4.45
2023-03-06T07:56:13.611Z,4.22
2023-03-06T07:58:43.094Z,4.09
2023-03-06T08:01:23.604Z,4.30
2023-03-06T08:03:50.749Z,4.81
2023-03-06T08:06:22.975Z,4.98
2023-03-06T08:08:51.070Z,5.19
2023-03-06T08:11:20.481Z,5.37
2023-03-06T08:13:48.857Z,5.61
2023-03-06T08:16:17.409Z,5.39
2023-03-06T08:18:46.275Z,4.95
2023-03-06T08:21:21.188Z,5.28
2023-03-06T08:23:48.336Z,5.81
2023-03-06T08:26:18.016Z,6.15
2023-03-06T08:28:44.965Z,6.15
2023-03-06T08:31:23.385Z,5.71
2023-03-06T08:33:50.252Z,5.99
2023-03-06T08:36:16.890Z,6.15
2023-03-06T08:38:43.458Z,5.63
2023-03-06T08:41:10.154Z,6.02
2023-03-06T08:43:36.998Z,6.14
2023-03-06T08:46:04.013Z,6.12
2023-03-06T08:48:30.776Z,6.28
2023-03-06T08:50:57.351Z,6.23
2023-03-06T08:53:40.295Z,6.22
2023-03-06T08:56:15.521Z,6.22
2023-03-06T08:58:42.245Z,5.87
2023-03-06T09:01:23.526Z,6.10
2023-03-06T09:03:51.100Z,6.33
2023-03-06T09:06:17.768Z,6.33
2023-03-06T09:08:44.858Z,6.62
2023-03-06T09:11:14.307Z,6.75
2023-03-06T09:13:41.758Z,6.85
2023-03-06T09:16:09.087Z,6.40
2023-03-06T09:18:36.169Z,6.26
2023-03-06T09:21:04.180Z,6.22
2023-03-06T09:23:31.241Z,6.55
2023-03-06T09:25:59.702Z,6.40
2023-03-06T09:28:26.434Z,6.56
2023-03-06T09:30:53.486Z,6.17
2023-03-06T09:33:21.393Z,6.33
2023-03-06T09:35:57.777Z,6.62
2023-03-06T09:38:27.262Z,6.83
2023-03-06T09:41:05.891Z,6.70
2023-03-06T09:43:40.206Z,6.91
2023-03-06T09:46:39.866Z,7.03
2023-03-06T09:49:26.260Z,6.65
2023-03-06T09:52:20.331Z,6.38
2023-03-06T09:54:55.405Z,6.23
2023-03-06T09:57:26.201Z,6.58
2023-03-06T10:00:02.905Z,6.48
2023-03-06T10:02:30.796Z,6.44
2023-03-06T10:05:04.094Z,6.39
2023-03-06T10:07:44.734Z,6.46
2023-03-06T10:10:24.151Z,6.80
2023-03-06T10:13:03.098Z,6.91
2023-03-06T10:15:36.232Z,6.58
2023-03-06T10:18:05.459Z,6.65
2023-03-06T10:21:02.548Z,7.08
2023-03-06T10:24:09.460Z,7.33
2023-03-06T10:26:43.519Z,6.72
2023-03-06T10:29:12.946Z,6.95
2023-03-06T10:31:46.600Z,7.03
2023-03-06T10:34:22.446Z,7.39
2023-03-06T10:36:50.207Z,7.23
2023-03-06T10:39:21.739Z,7.63
2023-03-06T10:41:49.751Z,7.91
2023-03-06T10:44:16.390Z,8.11
2023-03-06T10:46:48.482Z,8.30
2023-03-06T10:49:15.052Z,8.28
2023-03-06T10:51:56.373Z,8.32
2023-03-06T10:54:23.018Z,7.83
2023-03-06T10:56:49.708Z,8.02
2023-03-06T10:59:25.579Z,7.29
2023-03-06T11:02:20.036Z,7.68
2023-03-06T11:04:52.511Z,7.15
2023-03-06T11:07:27.932Z,7.06
2023-03-06T11:09:57.890Z,7.61
2023-03-06T11:12:38.760Z,8.07
2023-03-06T11:15:09.853Z,8.16
2023-03-06T11:17:58.854Z,8.71
2023-03-06T11:20:51.374Z,8.82
2023-03-06T11:23:35.318Z,9.21
2023-03-06T11:26:06.123Z,9.45
2023-03-06T11:28:41.705Z,9.44
2023-03-06T11:31:11.551Z,9.59
2023-03-06T11:33:54.040Z,9.77
2023-03-06T11:36:30.647Z,8.91
2023-03-06T11:38:57.228Z,10.02
2023-03-06T11:41:52.636Z,10.17
2023-03-06T11:45:10.240Z,10.10
2023-03-06T11:47:42.346Z,9.35
2023-03-06T11:50:21.640Z,10.08
2023-03-06T11:52:58.805Z,10.56
2023-03-06T11:55:40.632Z,10.73
2023-03-06T11:58:36.774Z,11.56
2023-03-06T12:01:14.638Z,10.63
2023-03-06T12:03:50.209Z,10.71
2023-03-06T12:06:34.798Z,11.13
2023-03-06T12:09:13.473Z,11.81
2023-03-06T12:11:58.284Z,12.27
2023-03-06T12:14:55.236Z,12.01
2023-03-06T12:18:03.224Z,11.71
2023-03-06T12:20:29.732Z,10.90
2023-03-06T12:23:16.488Z,11.43
2023-03-06T12:25:49.120Z,10.83
2023-03-06T12:28:23.152Z,11.55
2023-03-06T12:31:10.813Z,12.07
2023-03-06T12:33:43.045Z,11.91
2023-03-06T12:36:21.801Z,11.81
2023-03-06T12:39:31.386Z,12.27
2023-03-06T12:42:30.769Z,12.34
2023-03-06T12:45:21.976Z,12.00
2023-03-06T12:47:53.765Z,11.75
2023-03-06T12:50:23.373Z,12.35
2023-03-06T12:52:51.931Z,12.18
2023-03-06T12:55:24.356Z,11.89
2023-03-06T12:57:53.006Z,11.23
2023-03-06T13:00:35.118Z,11.36
2023-03-06T13:03:01.638Z,11.06
2023-03-06T13:05:56.668Z,10.14
2023-03-06T13:08:52.782Z,10.61
2023-03-06T13:11:36.918Z,10.33
2023-03-06T13:14:21.392Z,10.38
2023-03-06T13:16:48.091Z,10.07
2023-03-06T13:19:26.505Z,9.96
2023-03-06T13:21:56.530Z,9.95
2023-03-06T13:24:27.488Z,9.80
2023-03-06T13:26:55.826Z,10.35
2023-03-06T13:29:37.869Z,10.57
2023-03-06T13:32:04.500Z,10.85
2023-03-06T13:34:37.051Z,10.27
2023-03-06T13:37:29.940Z,10.52
2023-03-06T13:39:59.559Z,10.86
2023-03-06T13:42:30.575Z,10.40
2023-03-06T13:45:24.794Z,10.84
2023-03-06T13:50:46.349Z,11.04
2023-03-06T13:53:54.999Z,11.13
2023-03-06T13:56:39.811Z,10.89
2023-03-06T13:59:22.901Z,10.53
2023-03-06T14:02:11.299Z,10.77
2023-03-06T14:04:57.833Z,10.93
2023-03-06T14:07:33.101Z,10.25
2023-03-06T14:10:01.428Z,10.93
2023-03-06T14:12:38.081Z,10.85
2023-03-06T14:15:15.176Z,10.74
2023-03-06T14:17:53.196Z,10.57
2023-03-06T14:20:21.280Z,10.73
2023-03-06T14:22:48.374Z,10.98
2023-03-06T14:25:28.459Z,10.62
2023-03-06T14:28:02.869Z,10.94
2023-03-06T14:30:32.333Z,11.31
2023-03-06T14:32:59.127Z,11.38
2023-03-06T14:35:32.136Z,10.97
2023-03-06T14:38:02.502Z,10.98
2023-03-06T14:40:33.386Z,10.99
2023-03-06T14:43:13.757Z,11.06
2023-03-06T14:46:19.908Z,11.35
2023-03-06T14:48:48.083Z,10.96
2023-03-06T14:51:19.396Z,11.10
2023-03-06T14:53:48.983Z,11.20
2023-03-06T14:56:26.742Z,10.58
2023-03-06T14:59:08.331Z,10.73
2023-03-06T15:01:39.603Z,11.06
2023-03-06T15:04:28.587Z,10.96
2023-03-06T15:06:58.052Z,11.49
2023-03-06T15:09:26.686Z,11.28
2023-03-06T15:12:21.317Z,10.98
2023-03-06T15:15:10.458Z,10.94
2023-03-06T15:17:42.272Z,10.91
2023-03-06T15:20:48.734Z,11.17
2023-03-06T15:23:34.179Z,11.13
2023-03-06T15:26:04.461Z,11.91
2023-03-06T15:28:36.010Z,12.53
2023-03-06T15:31:18.328Z,11.62
2023-03-06T15:33:59.437Z,12.70
2023-03-06T15:36:31.775Z,12.44
2023-03-06T15:39:00.830Z,13.33
2023-03-06T15:41:36.316Z,13.36
2023-03-06T15:44:10.779Z,13.80
2023-03-06T15:46:37.522Z,13.29
2023-03-06T15:49:04.821Z,13.21
2023-03-06T15:51:32.701Z,13.49
2023-03-06T15:54:11.316Z,13.22
2023-03-06T15:56:43.960Z,13.70
2023-03-06T15:59:24.837Z,14.57
2023-03-06T16:01:52.487Z,14.24
2023-03-06T16:04:19.931Z,13.39
2023-03-06T16:06:46.644Z,13.45
2023-03-06T16:09:14.071Z,12.98
2023-03-06T16:11:47.255Z,13.08
2023-03-06T16:14:21.418Z,12.17
2023-03-06T16:16:49.355Z,11.42
2023-03-06T16:19:25.969Z,10.74
2023-03-06T16:21:53.366Z,10.92
2023-03-06T16:24:20.012Z,10.54
2023-03-06T16:26:51.486Z,10.02
2023-03-06T16:29:21.188Z,10.28
2023-03-06T16:31:48.338Z,9.85
2023-03-06T16:34:15.388Z,9.51
2023-03-06T16:36:42.023Z,9.03
2023-03-06T16:39:20.900Z,9.35
2023-03-06T16:41:49.249Z,9.58
2023-03-06T16:44:17.924Z,9.53
2023-03-06T16:46:47.188Z,9.29
2023-03-06T16:49:23.453Z,9.04
2023-03-06T16:51:50.783Z,8.66
2023-03-06T16:54:18.006Z,8.85
2023-03-06T16:56:44.803Z,8.45
2023-03-06T16:59:12.315Z,8.38
2023-03-06T17:01:42.927Z,8.18
2023-03-06T17:04:09.854Z,8.21
2023-03-06T17:06:36.763Z,7.95
2023-03-06T17:09:04.035Z,8.02
2023-03-06T17:11:30.552Z,7.83
2023-03-06T17:13:57.188Z,7.87
2023-03-06T17:16:23.745Z,7.52
2023-03-06T17:18:50.438Z,7.77
2023-03-06T17:21:17.039Z,7.72
2023-03-06T17:23:44.637Z,7.73
2023-03-06T17:26:11.359Z,8.00
2023-03-06T17:28:38.689Z,7.68
2023-03-06T17:31:16.736Z,7.86
2023-03-06T17:33:43.963Z,7.77
2023-03-06T17:36:11.099Z,7.64
2023-03-06T17:38:37.892Z,7.60
2023-03-06T17:41:06.137Z,7.37
2023-03-06T17:43:33.089Z,7.42
2023-03-06T17:46:07.621Z,7.43
2023-03-06T17:48:35.242Z,7.33
2023-03-06T17:51:05.778Z,7.44
2023-03-06T17:53:32.456Z,7.44
2023-03-06T17:55:59.414Z,7.47
2023-03-06T17:58:27.085Z,7.64
2023-03-06T18:00:53.728Z,7.73
2023-03-06T18:03:20.527Z,7.46
2023-03-06T18:05:47.175Z,7.51
2023-03-06T18:08:14.123Z,7.57
2023-03-06T18:10:41.730Z,7.74
2023-03-06T18:13:10.335Z,7.60
2023-03-06T18:15:41.313Z,7.67
2023-03-06T18:18:08.786Z,7.42
2023-03-06T18:20:40.998Z,7.41
2023-03-06T18:23:07.899Z,7.51
2023-03-06T18:25:35.062Z,7.32
2023-03-06T18:28:02.021Z,7.27
2023-03-06T18:30:28.715Z,7.41
2023-03-06T18:32:55.293Z,7.27
2023-03-06T18:35:21.988Z,6.99
2023-03-06T18:37:48.614Z,7.07
2023-03-06T18:40:15.305Z,6.94
2023-03-06T18:42:44.566Z,6.86
2023-03-06T18:45:12.852Z,6.87
2023-03-06T18:47:41.098Z,6.96
2023-03-06T18:50:08.117Z,6.95
2023-03-06T18:52:34.940Z,6.78
2023-03-06T18:55:01.709Z,6.69
2023-03-06T18:57:30.307Z,6.76
2023-03-06T18:59:57.007Z,6.79
2023-03-06T19:02:23.607Z,6.93
2023-03-06T19:04:50.196Z,6.77
2023-03-06T19:07:16.947Z,6.78
2023-03-06T19:09:44.496Z,6.66
2023-03-06T19:12:11.588Z,6.73
2023-03-06T19:14:38.214Z,6.70
2023-03-06T19:17:05.127Z,6.62
2023-03-06T19:19:31.703Z,6.68
2023-03-06T19:21:58.507Z,6.71
2023-03-06T19:24:25.392Z,6.67
2023-03-06T19:26:52.259Z,6.66
2023-03-06T19:29:19.028Z,6.66
2023-03-06T19:31:45.687Z,6.55
2023-03-06T19:34:12.279Z,6.74
2023-03-06T19:36:40.921Z,6.98
2023-03-06T19:39:09.581Z,6.80
2023-03-06T19:41:36.613Z,6.82
2023-03-06T19:44:05.728Z,6.85
2023-03-06T19:46:32.973Z,6.65
2023-03-06T19:49:01.897Z,6.45
2023-03-06T19:51:28.918Z,6.56
2023-03-06T19:53:56.688Z,6.57
2023-03-06T19:56:26.421Z,6.91
2023-03-06T19:58:53.453Z,6.51
2023-03-06T20:01:21.560Z,6.48
2023-03-06T20:03:49.394Z,6.43
2023-03-06T20:06:20.186Z,6.61
2023-03-06T20:08:47.856Z,6.65
2023-03-06T20:11:23.410Z,6.49
2023-03-06T20:13:50.407Z,6.55
2023-03-06T20:16:20.017Z,6.49
2023-03-06T20:18:46.848Z,6.60
2023-03-06T20:21:14.153Z,6.69
2023-03-06T20:23:40.970Z,6.68
2023-03-06T20:26:10.163Z,6.58
2023-03-06T20:28:39.116Z,6.45
2023-03-06T20:31:19.530Z,6.46
2023-03-06T20:33:48.071Z,6.47
2023-03-06T20:36:23.417Z,6.59
2023-03-06T20:38:50.488Z,6.35
2023-03-06T20:41:19.616Z,6.22
2023-03-06T20:43:46.438Z,6.08
2023-03-06T20:46:14.273Z,6.07
2023-03-06T20:48:41.986Z,5.95
2023-03-06T20:51:24.940Z,5.70
2023-03-06T20:53:55.899Z,5.51
2023-03-06T20:56:27.599Z,5.45
2023-03-06T20:58:54.219Z,5.17
2023-03-06T21:01:23.412Z,4.94
2023-03-06T21:03:50.657Z,4.89
2023-03-06T21:06:18.248Z,4.90
2023-03-06T21:08:44.838Z,4.67
2023-03-06T21:11:11.468Z,4.42
2023-03-06T21:13:38.035Z,4.47
2023-03-06T21:16:06.758Z,4.34
2023-03-06T21:18:33.754Z,4.27
2023-03-06T21:21:08.821Z,4.34
2023-03-06T21:23:35.431Z,4.18
2023-03-06T21:26:02.220Z,3.90
2023-03-06T21:28:29.052Z,3.86
2023-03-06T21:30:55.770Z,4.07
2023-03-06T21:33:23.021Z,3.95
2023-03-06T21:35:49.622Z,3.68
2023-03-06T21:38:16.657Z,3.66
2023-03-06T21:40:44.621Z,3.81
2023-03-06T21:43:12.361Z,3.72
2023-03-06T21:45:46.993Z,3.75
2023-03-06T21:48:15.192Z,3.97
2023-03-06T21:50:42.627Z,4.11
2023-03-06T21:53:09.300Z,4.13
2023-03-06T21:55:40.451Z,4.15
2023-03-06T21:58:07.020Z,4.18
2023-03-06T22:00:36.510Z,4.21
2023-03-06T22:03:04.781Z,4.20
2023-03-06T22:05:34.154Z,4.30
2023-03-06T22:08:00.726Z,4.21
2023-03-06T22:10:27.347Z,4.29
2023-03-06T22:12:54.030Z,4.37
2023-03-06T22:15:21.841Z,4.30
2023-03-06T22:17:48.725Z,4.20
2023-03-06T22:20:16.024Z,4.21
2023-03-06T22:22:43.743Z,4.18
2023-03-06T22:25:12.314Z,4.18
2023-03-06T22:27:39.122Z,4.18
2023-03-06T22:30:06.547Z,4.26
2023-03-06T22:32:34.005Z,4.25
2023-03-06T22:35:00.935Z,4.08
2023-03-06T22:37:27.690Z,4.16
2023-03-06T22:39:54.358Z,4.17
2023-03-06T22:42:20.920Z,4.21
2023-03-06T22:44:47.521Z,4.18
2023-03-06T22:47:14.118Z,4.07
2023-03-06T22:49:40.714Z,4.16
2023-03-06T22:52:07.293Z,4.05
2023-03-06T22:54:34.010Z,4.01
2023-03-06T22:57:00.563Z,4.04
2023-03-06T22:59:27.182Z,3.95
2023-03-06T23:01:53.920Z,3.91
2023-03-06T23:04:20.525Z,3.96
2023-03-06T23:06:47.168Z,3.68
2023-03-06T23:09:22.489Z,3.51
2023-03-06T23:11:49.928Z,3.59
2023-03-06T23:14:18.218Z,3.64
2023-03-06T23:16:45.454Z,3.56
2023-03-06T23:19:12.530Z,3.62
2023-03-06T23:21:39.194Z,3.68
2023-03-06T23:24:07.035Z,3.70
2023-03-06T23:26:34.428Z,3.72
2023-03-06T23:29:01.764Z,3.80
2023-03-06T23:31:30.752Z,3.81
2023-03-06T23:34:02.217Z,3.84
2023-03-06T23:36:30.304Z,3.98
2023-03-06T23:38:57.638Z,4.04
2023-03-06T23:41:25.226Z,4.17
2023-03-06T23:43:54.641Z,4.13
2023-03-06T23:46:22.032Z,4.11
2023-03-06T23:48:48.724Z,4.26
2023-03-06T23:51:21.395Z,4.42
2023-03-06T23:53:55.134Z,4.31
2023-03-06T23:56:22.778Z,4.13
2023-03-06T23:58:49.417Z,4.06
